Neverland Angel — IBJO — position and weather

sailwx.info

Track history (hours):
 
Tides and Currents Weather Stations Pressure Air Temp Water Temp Dewpoint Dewpoint Depression Visibility Wind Speed Wind Dir Waves Ship Positions

Neverland Angel

Last reported at 2018-Jan-20 16:44 UTC. Time now 2018-Jan-20 19:25 UTC.
Position N 56°02' E 006°19'.

Length 248 m; draft 12.6 m.

Type: Ship. MMSI: 247258200.

Date/timePositionNaut miles runAvg speedWind from/ knotsBaromVisibWave heightAir tempDewpointWater temp
2018-Jan-20 16:44N 56°02' E 006°19'412.0
2018-Jan-20 16:22N 56°06' E 006°22'512.0
2018-Jan-20 15:57N 56°11' E 006°26'512.0
2018-Jan-20 15:30N 56°15' E 006°31'15511.1
2018-Jan-20 01:32N 57°48' E 010°18'112.0
2018-Jan-20 01:28N 57°49' E 010°20'511.6
2018-Jan-20 01:00N 57°49' E 010°29'611.1
2018-Jan-20 00:30N 57°49' E 010°40'510.8
2018-Jan-20 00:00N 57°47' E 010°49'510.2
2018-Jan-19 23:30N 57°42' E 010°46'2 3.3
2018-Jan-19 22:59N 57°41' E 010°43'0 0.1
2018-Jan-19 22:29N 57°41' E 010°43'0 0.0
2018-Jan-19 21:59N 57°41' E 010°43'0 0.0
2018-Jan-19 21:29N 57°41' E 010°43'0 0.0
2018-Jan-19 20:59N 57°41' E 010°43'0 0.0
2018-Jan-19 20:29N 57°41' E 010°43'0 0.0
2018-Jan-19 19:59N 57°41' E 010°43'0 0.0
2018-Jan-19 19:29N 57°41' E 010°43'0 0.0
2018-Jan-19 18:59N 57°41' E 010°43'0 0.0
2018-Jan-19 18:26N 57°41' E 010°43'0 0.0
2018-Jan-19 17:59N 57°41' E 010°43'0 0.0
2018-Jan-19 17:29N 57°41' E 010°43'0 0.0
2018-Jan-19 16:59N 57°41' E 010°43'0 0.0
2018-Jan-19 16:29N 57°41' E 010°43'0 0.1
2018-Jan-19 16:00N 57°41' E 010°43'3 5.4
2018-Jan-19 15:27N 57°39' E 010°47'511.2
2018-Jan-19 15:00N 57°36' E 010°55'612.3
2018-Jan-19 14:29N 57°34' E 011°06'612.7
2018-Jan-19 14:00N 57°32' E 011°17'612.0
2018-Jan-19 13:30N 57°28' E 011°25'612.1
2018-Jan-19 13:00N 57°22' E 011°29'612.2
2018-Jan-19 12:30N 57°16' E 011°33'612.5
2018-Jan-19 12:00N 57°11' E 011°37'612.6
2018-Jan-19 11:30N 57°05' E 011°41'612.9
2018-Jan-19 11:00N 56°59' E 011°45'10410.7
2018-Jan-19 01:20N 55°17' E 011°04'411.8
2018-Jan-19 01:00N 55°14' E 011°06'611.1
2018-Jan-19 00:30N 55°09' E 010°60'712.0
2018-Jan-18 23:56N 55°03' E 010°60'511.6
2018-Jan-18 23:30N 54°58' E 010°57'611.9
2018-Jan-18 23:00N 54°53' E 010°51'612.3
2018-Jan-18 22:30N 54°47' E 010°49'611.7
2018-Jan-18 22:00N 54°41' E 010°47'611.0
2018-Jan-18 21:30N 54°38' E 010°54'611.2
2018-Jan-18 21:00N 54°36' E 011°04'611.3
2018-Jan-18 20:30N 54°35' E 011°13'611.8
2018-Jan-18 20:00N 54°33' E 011°22'611.4
2018-Jan-18 19:30N 54°30' E 011°31'611.1
2018-Jan-18 19:00N 54°28' E 011°40'611.1
2018-Jan-18 18:30N 54°26' E 011°49'611.6
2018-Jan-18 18:00N 54°26' E 011°59'611.8
2018-Jan-18 17:30N 54°26' E 012°09'8011.3
2018-Jan-18 10:26N 55°06' E 014°09'512.1
2018-Jan-18 10:00N 55°10' E 014°14'612.1
2018-Jan-18 09:28N 55°16' E 014°21'612.2
2018-Jan-18 09:00N 55°20' E 014°27'612.4
2018-Jan-18 08:30N 55°25' E 014°34'612.5
2018-Jan-18 08:00N 55°29' E 014°43'612.6
2018-Jan-18 07:30N 55°32' E 014°52'612.5
2018-Jan-18 07:00N 55°35' E 015°02'612.4
2018-Jan-18 06:30N 55°38' E 015°12'612.3
2018-Jan-18 06:00N 55°39' E 015°22'612.3
2018-Jan-18 05:30N 55°41' E 015°33'612.3
2018-Jan-18 05:00N 55°42' E 015°43'612.2
2018-Jan-18 04:30N 55°44' E 015°54'612.3
2018-Jan-18 04:00N 55°45' E 016°04'612.5
2018-Jan-18 03:30N 55°47' E 016°15'612.4
2018-Jan-18 03:00N 55°48' E 016°26'712.2
2018-Jan-18 02:28N 55°50' E 016°37'  
2018-Jan-11 21:29N 56°01' E 016°40'4 8.1
2018-Jan-11 20:59N 55°59' E 016°34'4 8.1
2018-Jan-11 20:30N 55°57' E 016°28'4 8.3
2018-Jan-11 20:00N 55°55' E 016°21'4 8.3
2018-Jan-11 19:30N 55°53' E 016°15'4 8.3
2018-Jan-11 19:00N 55°51' E 016°08'4 8.6
2018-Jan-11 18:30N 55°49' E 016°02'4 8.0
2018-Jan-11 18:00N 55°47' E 015°56'5 9.5
2018-Jan-11 17:30N 55°45' E 015°48'5 9.5
2018-Jan-11 17:00N 55°43' E 015°40'5 9.5
2018-Jan-11 16:30N 55°40' E 015°33'5 9.4
2018-Jan-11 16:00N 55°38' E 015°26'5 9.2
2018-Jan-11 15:30N 55°36' E 015°19'5 8.6
2018-Jan-11 14:59N 55°34' E 015°12'3 6.7
2018-Jan-11 14:29N 55°32' E 015°06'3 6.0
2018-Jan-11 13:58N 55°30' E 015°02'3 6.2
2018-Jan-11 13:30N 55°29' E 014°58'3 6.5
2018-Jan-11 13:00N 55°27' E 014°52'3 6.3
2018-Jan-11 12:30N 55°26' E 014°47'3 6.2
2018-Jan-11 12:00N 55°25' E 014°42'3 6.2
2018-Jan-11 11:28N 55°23' E 014°38'3 6.3
2018-Jan-11 11:00N 55°21' E 014°34'4 6.3
2018-Jan-11 10:21N 55°18' E 014°29'2 6.6
2018-Jan-11 09:59N 55°16' E 014°27'3 6.9
2018-Jan-11 09:30N 55°13' E 014°23'3 6.8
2018-Jan-11 09:00N 55°11' E 014°18'611.2
2018-Jan-11 08:30N 55°11' E 014°09'10 8.1
2018-Jan-11 07:18N 55°11' E 013°52'18 9.6
2018-Jan-11 05:26N 55°13' E 013°21'6 9.6
2018-Jan-11 04:51N 55°13' E 013°11'3 9.6
2018-Jan-11 04:30N 55°14' E 013°05'5 9.6
2018-Jan-11 04:00N 55°14' E 012°57'5 9.4
2018-Jan-11 03:30N 55°16' E 012°49'5 9.7
2018-Jan-11 03:00N 55°17' E 012°41'4 7.1
2018-Jan-11 02:30N 55°20' E 012°38'510.3
2018-Jan-11 02:00N 55°26' E 012°40'510.1
2018-Jan-11 01:30N 55°31' E 012°41'5 9.0
2018-Jan-11 01:00N 55°35' E 012°42'4 8.2
2018-Jan-11 00:30N 55°39' E 012°41'611.7
2018-Jan-11 00:00N 55°45' E 012°41'612.7
2018-Jan-10 23:30N 55°51' E 012°41'611.9
2018-Jan-10 23:00N 55°57' E 012°39'612.1
2018-Jan-10 22:30N 56°03' E 012°39'510.5
2018-Jan-10 22:00N 56°07' E 012°32'4 8.0
2018-Jan-10 21:30N 56°09' E 012°26'5 9.3
2018-Jan-10 21:00N 56°12' E 012°19'5 9.4
2018-Jan-10 20:30N 56°14' E 012°12'5 9.6
2018-Jan-10 19:56N 56°17' E 012°04'  
Track history (hours):
 
Tides and Currents Weather Stations Pressure Air Temp Water Temp Dewpoint Dewpoint Depression Visibility Wind Speed Wind Dir Waves Ship Positions

Neverland Angel

Last reported at 2018-Jan-20 16:44 UTC. Time now 2018-Jan-20 19:25 UTC.
Position N 56°02' E 006°19'.

Length 248 m; draft 12.6 m.

Type: Ship. MMSI: 247258200.

Date/timePositionNaut miles runAvg speedWind from/ knotsBaromVisibWave heightAir tempDewpointWater temp
2018-Jan-20 16:44N 56°02' E 006°19'412.0
2018-Jan-20 16:22N 56°06' E 006°22'512.0
2018-Jan-20 15:57N 56°11' E 006°26'512.0
2018-Jan-20 15:30N 56°15' E 006°31'15511.1
2018-Jan-20 01:32N 57°48' E 010°18'112.0
2018-Jan-20 01:28N 57°49' E 010°20'511.6
2018-Jan-20 01:00N 57°49' E 010°29'611.1
2018-Jan-20 00:30N 57°49' E 010°40'510.8
2018-Jan-20 00:00N 57°47' E 010°49'510.2
2018-Jan-19 23:30N 57°42' E 010°46'2 3.3
2018-Jan-19 22:59N 57°41' E 010°43'0 0.1
2018-Jan-19 22:29N 57°41' E 010°43'0 0.0
2018-Jan-19 21:59N 57°41' E 010°43'0 0.0
2018-Jan-19 21:29N 57°41' E 010°43'0 0.0
2018-Jan-19 20:59N 57°41' E 010°43'0 0.0
2018-Jan-19 20:29N 57°41' E 010°43'0 0.0
2018-Jan-19 19:59N 57°41' E 010°43'0 0.0
2018-Jan-19 19:29N 57°41' E 010°43'0 0.0
2018-Jan-19 18:59N 57°41' E 010°43'0 0.0
2018-Jan-19 18:26N 57°41' E 010°43'0 0.0
2018-Jan-19 17:59N 57°41' E 010°43'0 0.0
2018-Jan-19 17:29N 57°41' E 010°43'0 0.0
2018-Jan-19 16:59N 57°41' E 010°43'0 0.0
2018-Jan-19 16:29N 57°41' E 010°43'0 0.1
2018-Jan-19 16:00N 57°41' E 010°43'3 5.4
2018-Jan-19 15:27N 57°39' E 010°47'511.2
2018-Jan-19 15:00N 57°36' E 010°55'612.3
2018-Jan-19 14:29N 57°34' E 011°06'612.7
2018-Jan-19 14:00N 57°32' E 011°17'612.0
2018-Jan-19 13:30N 57°28' E 011°25'612.1
2018-Jan-19 13:00N 57°22' E 011°29'612.2
2018-Jan-19 12:30N 57°16' E 011°33'612.5
2018-Jan-19 12:00N 57°11' E 011°37'612.6
2018-Jan-19 11:30N 57°05' E 011°41'612.9
2018-Jan-19 11:00N 56°59' E 011°45'10410.7
2018-Jan-19 01:20N 55°17' E 011°04'411.8
2018-Jan-19 01:00N 55°14' E 011°06'611.1
2018-Jan-19 00:30N 55°09' E 010°60'712.0
2018-Jan-18 23:56N 55°03' E 010°60'511.6
2018-Jan-18 23:30N 54°58' E 010°57'611.9
2018-Jan-18 23:00N 54°53' E 010°51'612.3
2018-Jan-18 22:30N 54°47' E 010°49'611.7
2018-Jan-18 22:00N 54°41' E 010°47'611.0
2018-Jan-18 21:30N 54°38' E 010°54'611.2
2018-Jan-18 21:00N 54°36' E 011°04'611.3
2018-Jan-18 20:30N 54°35' E 011°13'611.8
2018-Jan-18 20:00N 54°33' E 011°22'611.4
2018-Jan-18 19:30N 54°30' E 011°31'611.1
2018-Jan-18 19:00N 54°28' E 011°40'611.1
2018-Jan-18 18:30N 54°26' E 011°49'611.6
2018-Jan-18 18:00N 54°26' E 011°59'611.8
2018-Jan-18 17:30N 54°26' E 012°09'8011.3
2018-Jan-18 10:26N 55°06' E 014°09'512.1
2018-Jan-18 10:00N 55°10' E 014°14'612.1
2018-Jan-18 09:28N 55°16' E 014°21'612.2
2018-Jan-18 09:00N 55°20' E 014°27'612.4
2018-Jan-18 08:30N 55°25' E 014°34'612.5
2018-Jan-18 08:00N 55°29' E 014°43'612.6
2018-Jan-18 07:30N 55°32' E 014°52'612.5
2018-Jan-18 07:00N 55°35' E 015°02'612.4
2018-Jan-18 06:30N 55°38' E 015°12'612.3
2018-Jan-18 06:00N 55°39' E 015°22'612.3
2018-Jan-18 05:30N 55°41' E 015°33'612.3
2018-Jan-18 05:00N 55°42' E 015°43'612.2
2018-Jan-18 04:30N 55°44' E 015°54'612.3
2018-Jan-18 04:00N 55°45' E 016°04'612.5
2018-Jan-18 03:30N 55°47' E 016°15'612.4
2018-Jan-18 03:00N 55°48' E 016°26'712.2
2018-Jan-18 02:28N 55°50' E 016°37'  
2018-Jan-11 21:29N 56°01' E 016°40'4 8.1
2018-Jan-11 20:59N 55°59' E 016°34'4 8.1
2018-Jan-11 20:30N 55°57' E 016°28'4 8.3
2018-Jan-11 20:00N 55°55' E 016°21'4 8.3
2018-Jan-11 19:30N 55°53' E 016°15'4 8.3
2018-Jan-11 19:00N 55°51' E 016°08'4 8.6
2018-Jan-11 18:30N 55°49' E 016°02'4 8.0
2018-Jan-11 18:00N 55°47' E 015°56'5 9.5
2018-Jan-11 17:30N 55°45' E 015°48'5 9.5
2018-Jan-11 17:00N 55°43' E 015°40'5 9.5
2018-Jan-11 16:30N 55°40' E 015°33'5 9.4
2018-Jan-11 16:00N 55°38' E 015°26'5 9.2
2018-Jan-11 15:30N 55°36' E 015°19'5 8.6
2018-Jan-11 14:59N 55°34' E 015°12'3 6.7
2018-Jan-11 14:29N 55°32' E 015°06'3 6.0
2018-Jan-11 13:58N 55°30' E 015°02'3 6.2
2018-Jan-11 13:30N 55°29' E 014°58'3 6.5
2018-Jan-11 13:00N 55°27' E 014°52'3 6.3
2018-Jan-11 12:30N 55°26' E 014°47'3 6.2
2018-Jan-11 12:00N 55°25' E 014°42'3 6.2
2018-Jan-11 11:28N 55°23' E 014°38'3 6.3
2018-Jan-11 11:00N 55°21' E 014°34'4 6.3
2018-Jan-11 10:21N 55°18' E 014°29'2 6.6
2018-Jan-11 09:59N 55°16' E 014°27'3 6.9
2018-Jan-11 09:30N 55°13' E 014°23'3 6.8
2018-Jan-11 09:00N 55°11' E 014°18'611.2
2018-Jan-11 08:30N 55°11' E 014°09'10 8.1
2018-Jan-11 07:18N 55°11' E 013°52'18 9.6
2018-Jan-11 05:26N 55°13' E 013°21'6 9.6
2018-Jan-11 04:51N 55°13' E 013°11'3 9.6
2018-Jan-11 04:30N 55°14' E 013°05'5 9.6
2018-Jan-11 04:00N 55°14' E 012°57'5 9.4
2018-Jan-11 03:30N 55°16' E 012°49'5 9.7
2018-Jan-11 03:00N 55°17' E 012°41'4 7.1
2018-Jan-11 02:30N 55°20' E 012°38'510.3
2018-Jan-11 02:00N 55°26' E 012°40'510.1
2018-Jan-11 01:30N 55°31' E 012°41'5 9.0
2018-Jan-11 01:00N 55°35' E 012°42'4 8.2
2018-Jan-11 00:30N 55°39' E 012°41'611.7
2018-Jan-11 00:00N 55°45' E 012°41'612.7
2018-Jan-10 23:30N 55°51' E 012°41'611.9
2018-Jan-10 23:00N 55°57' E 012°39'612.1
2018-Jan-10 22:30N 56°03' E 012°39'510.5
2018-Jan-10 22:00N 56°07' E 012°32'4 8.0
2018-Jan-10 21:30N 56°09' E 012°26'5 9.3
2018-Jan-10 21:00N 56°12' E 012°19'5 9.4
2018-Jan-10 20:30N 56°14' E 012°12'5 9.6
2018-Jan-10 19:56N 56°17' E 012°04'  

Dump ship's entire track history